This is the latest recevied weather packets stored in our database for station/object DM4XI-13. If no packets are shown the sender has not sent any weather packets the latest 10 day(s).
| Time | Temp. | Humidity | Pressure | Rain* | Wind** | Luminosity | Snow |
|---|---|---|---|---|---|---|---|
| 1778117948 | 10.56° C | 93% | 1007.3 hPa | 0 mm | 0.45 m/s, 226° | 0 W/m² | - |
| 1778117887 | 10.56° C | 93% | 1007.4 hPa | 0 mm | 1.34 m/s, 161° | 0 W/m² | - |
| 1778117825 | 10.56° C | 93% | 1007.1 hPa | 0 mm | 0.89 m/s, 202° | 0 W/m² | - |
| 1778117765 | 10.56° C | 93% | 1007.1 hPa | 0 mm | 0.45 m/s, 228° | 0 W/m² | - |
| 1778117704 | 10.56° C | 93% | 1007.2 hPa | 0 mm | 0.45 m/s, 177° | 0 W/m² | - |
| 1778117643 | 10.56° C | 93% | 1007.2 hPa | 0 mm | 0.89 m/s, 171° | 0 W/m² | - |
| 1778117582 | 10.56° C | 94% | 1007.1 hPa | 0 mm | 0 m/s | 0 W/m² | - |
| 1778117520 | 10.56° C | 93% | 1007.2 hPa | 0 mm | 0.45 m/s, 225° | 0 W/m² | - |
| 1778117459 | 10.56° C | 93% | 1007 hPa | 0 mm | 0 m/s | 0 W/m² | - |
| 1778117399 | 10.56° C | 93% | 1007.1 hPa | 0 mm | 0.45 m/s, 237° | 0 W/m² | - |
| 1778117337 | 10.56° C | 93% | 1007.1 hPa | 0 mm | 0 m/s | 0 W/m² | - |
| 1778117276 | 10.56° C | 93% | 1007.2 hPa | 0 mm | 0.45 m/s, 216° | 0 W/m² | - |
| 1778117215 | 10.56° C | 93% | 1007.2 hPa | 0 mm | 1.34 m/s, 162° | 0 W/m² | - |
| 1778117155 | 10.56° C | 94% | 1007.1 hPa | 0 mm | 0.45 m/s, 220° | 0 W/m² | - |
| 1778117094 | 10.56° C | 94% | 1007.2 hPa | 0 mm | 1.34 m/s, 179° | 0 W/m² | - |
| 1778117032 | 10.56° C | 94% | 1007.1 hPa | 0 mm | 1.34 m/s, 255° | 0 W/m² | - |
| 1778116972 | 10.56° C | 94% | 1007.1 hPa | 0 mm | 0 m/s | 0 W/m² | - |
| 1778116910 | 10.56° C | 94% | 1007.2 hPa | 0 mm | 0 m/s | 0 W/m² | - |
| 1778116849 | 10.56° C | 94% | 1007.2 hPa | 0 mm | 0.45 m/s, 198° | 0 W/m² | - |
| 1778116788 | 10.56° C | 94% | 1007 hPa | 0 mm | 0.45 m/s, 197° | 0 W/m² | - |
| 1778116727 | 10.56° C | 93% | 1007.1 hPa | 0 mm | 0.45 m/s, 194° | 0 W/m² | - |
| 1778116666 | 10.56° C | 93% | 1007.1 hPa | 0 mm | 1.34 m/s, 195° | 0 W/m² | - |
| 1778116605 | 10.56° C | 93% | 1006.9 hPa | 0 mm | 0.45 m/s, 246° | 0 W/m² | - |
| 1778116545 | 10.56° C | 93% | 1007.2 hPa | 0 mm | 0 m/s | 0 W/m² | - |
| 1778116483 | 10.56° C | 93% | 1007.1 hPa | 0 mm | 0.89 m/s, 179° | 0 W/m² | - |
* Rain latest hour (hover to see other rain measurements)
** Current wind speed in m/s (hover to see current wind gust speed)